Ashby, Massachusetts
Current Conditions -  °F | °C
As of 5:34 PM on Wednesday 22 Oct 2014 (Local Time) from KFIT Reporting Station
Light Rain Light Rain  
Wind Chill: 10°   Ceiling: 1400
Heat Index: 10°   Visibility: 2mi
Dew Point:   Wind: 14mph
Humidity: 86%   Direction: 360°N
Pressure: 29.95"   Gusts: 26mph
Location:  42.68°N, 71.82°W
Report Text: KFIT 222134Z AUTO 36012G23KT 320V030 2SM -RA BR FEW008 BKN014 OVC020 10/08 A2995 RMK AO2 P0003 T01000078
Loading
Personal Weather Stations






























Interactive Weather Map
Tropical Storm Tracking
New forecast layout! Learn more

10-Day Weather Forecast

Advertisements
Track Severe Weather on mobile